KPBG/PBG METAR and TAF weather

Enter ICAO airport designator
Station Type Date Time Source
KPBG METAR 2020/02/22 05:53 UTC NOAA

KPBG 220553Z AUTO 21005KT 10SM CLR M03/M14 A3012 RMK AO2 SLP204 T10281144 11028 21083 55004


Station Type Date Time Source
KPBG Decoded METAR 2020/02/22 05:53 UTC NOAA

PLATTSBURGH INTERNATIONAL AIRPORT, NY, United States (KPBG) 44-39N 073-28W
Feb 22, 2020 - 12:53 AM EST / 2020.02.22 0553 UTC
Wind: from the SSW (210 degrees) at 6 MPH (5 KT):0
Visibility: 10 mile(s):0
Sky conditions: clear
Temperature: 27.0 F (-2.8 C)
Windchill: 19 F (-7 C):1
Dew Point: 6.1 F (-14.4 C)
Relative Humidity: 40%
Pressure (altimeter): 30.12 in. Hg (1019 hPa)
Pressure tendency: 0.01 inches (0.4 hPa) lower than three hours ago
ob: KPBG 220553Z AUTO 21005KT 10SM CLR M03/M14 A3012 RMK AO2 SLP204 T10281144 11028 21083 55004
cycle: 6

Station Type Date Time Source
KPBG TAF 2020/02/22 06:42 UTC NOAA

TAF KPBG 220534Z 2206/2306 18008KT P6SM SKC WS020/25035KT
FM220900 19008KT P6SM FEW250
FM221600 23008KT P6SM SCT045

Example: see airport list